DEBBX EDRX-EDRC
Flight info
| Callsign | DEBBX |
|---|---|
| Flight time | 0h -3m |
| Altitude | 4000 |
| Route | DCT |
| Aircraft | DA40/L-SFG/C |
Departure
| Time | 2026-04-30 19:15 |
|---|---|
| Airport | Bexbach Glider Field (EDRX) |
Arrival
| Time | 2026-04-30 19:12 |
|---|---|
| Airport | Marpingen Glider Airfield (EDRC) |
| Time | Latitude | Longitude | Altitude | Speed | Heading |
|---|---|---|---|---|---|
| 2026-04-30 19:11 | 49.45308 | 7.03282 | 1145 ft | 0 kts | 78° |
| 2026-04-30 19:13 | 49.45331 | 7.03390 | 1173 ft | 6 kts | 67° |
| 2026-04-30 19:13 | 49.45368 | 7.03460 | 1175 ft | 0 kts | 95° |
| 2026-04-30 19:14 | 49.45364 | 7.03517 | 1177 ft | 9 kts | 99° |
| 2026-04-30 19:15 | 49.45346 | 7.03648 | 1176 ft | 25 kts | 106° |
| 2026-04-30 19:15 | 49.45226 | 7.04782 | 1202 ft | 67 kts | 90° |
| 2026-04-30 19:15 | 49.45142 | 7.05378 | 1359 ft | 77 kts | 306° |
| 2026-04-30 19:16 | 49.45226 | 7.04490 | 1184 ft | 83 kts | 283° |
| 2026-04-30 19:16 | 49.45349 | 7.04029 | 1167 ft | 45 kts | 328° |
| 2026-04-30 19:17 | 49.45141 | 7.04397 | 1173 ft | 0 kts | 10° |
| 2026-04-30 19:19 | 49.45143 | 7.04398 | 1173 ft | 2 kts | 18° |
| 2026-04-30 19:19 | 49.45168 | 7.04432 | 1170 ft | 7 kts | 54° |
| 2026-04-30 19:19 | 49.45218 | 7.04543 | 1172 ft | 2 kts | 34° |
| 2026-04-30 19:20 | 49.45229 | 7.04545 | 1172 ft | 1 kts | 286° |
| 2026-04-30 19:21 | 49.45235 | 7.04500 | 1172 ft | 5 kts | 280° |
| 2026-04-30 19:22 | 49.45301 | 7.04012 | 1170 ft | 49 kts | 280° |
| 2026-04-30 19:22 | 49.45459 | 7.01957 | 1220 ft | 83 kts | 263° |
| 2026-04-30 19:23 | 49.45258 | 7.02471 | 1371 ft | 72 kts | 57° |
| 2026-04-30 19:24 | 49.45334 | 7.03733 | 1172 ft | 36 kts | 104° |
| 2026-04-30 19:24 | 49.45260 | 7.03880 | 1172 ft | 12 kts | 107° |